createdAt,value
2022-09-09T00:00:55.459Z,89.33
2022-09-09T00:03:39.623Z,91.43
2022-09-09T00:06:19.508Z,91.53
2022-09-09T00:09:14.652Z,93.37
2022-09-09T00:11:57.969Z,92.97
2022-09-09T00:14:42.184Z,90.63
2022-09-09T00:17:19.782Z,92.60
2022-09-09T00:20:02.597Z,92.77
2022-09-09T00:22:35.542Z,88.17
2022-09-09T00:25:12.634Z,90.57
2022-09-09T00:27:47.547Z,86.27
2022-09-09T00:30:23.610Z,84.17
2022-09-09T00:33:03.979Z,88.67
2022-09-09T00:35:39.051Z,85.37
2022-09-09T00:38:16.018Z,88.57
2022-09-09T00:40:51.989Z,88.73
2022-09-09T00:43:32.397Z,88.77
2022-09-09T00:46:30.282Z,87.37
2022-09-09T00:49:06.836Z,92.80
2022-09-09T00:51:48.666Z,94.90
2022-09-09T00:54:37.773Z,94.47
2022-09-09T00:57:20.871Z,92.70
2022-09-09T00:59:54.159Z,95.00
2022-09-09T01:02:31.184Z,96.40
2022-09-09T01:05:08.091Z,95.77
2022-09-09T01:07:38.907Z,96.83
2022-09-09T01:10:18.622Z,97.00
2022-09-09T01:13:12.158Z,96.90
2022-09-09T01:15:56.337Z,93.43
2022-09-09T01:18:38.530Z,94.73
2022-09-09T01:21:30.437Z,95.53
2022-09-09T01:24:21.944Z,95.47
2022-09-09T01:27:03.131Z,94.60
2022-09-09T01:29:32.864Z,95.53
2022-09-09T01:32:38.377Z,95.77
2022-09-09T01:35:41.624Z,98.80
2022-09-09T01:38:11.397Z,97.13
2022-09-09T01:40:50.367Z,95.47
2022-09-09T01:43:22.799Z,97.83
2022-09-09T01:45:56.832Z,99.17
2022-09-09T01:48:36.045Z,98.93
2022-09-09T01:51:11.631Z,96.33
2022-09-09T01:54:04.336Z,98.13
2022-09-09T01:56:43.376Z,99.40
2022-09-09T01:59:42.153Z,99.17
2022-09-09T02:02:30.227Z,100.10
2022-09-09T02:05:25.429Z,101.63
2022-09-09T02:08:01.926Z,100.47
2022-09-09T02:10:39.413Z,99.73
2022-09-09T02:13:17.099Z,98.13
2022-09-09T02:15:58.038Z,100.77
2022-09-09T02:18:33.191Z,98.53
2022-09-09T02:21:07.614Z,98.90
2022-09-09T02:23:38.084Z,101.57
2022-09-09T02:26:10.093Z,100.90
2022-09-09T02:28:40.572Z,101.57
2022-09-09T02:31:21.954Z,101.03
2022-09-09T02:34:01.672Z,102.87
2022-09-09T02:36:37.995Z,101.77
2022-09-09T02:39:17.249Z,103.43
2022-09-09T02:41:46.354Z,101.30
2022-09-09T02:44:21.439Z,99.47
2022-09-09T02:47:19.222Z,100.27
2022-09-09T02:50:05.054Z,104.37
2022-09-09T02:52:51.642Z,107.53
2022-09-09T02:55:25.909Z,104.57
2022-09-09T02:57:57.282Z,104.23
2022-09-09T03:00:30.203Z,102.10
2022-09-09T03:03:04.830Z,101.43
2022-09-09T03:05:34.528Z,105.63
2022-09-09T03:08:08.850Z,103.20
2022-09-09T03:10:46.266Z,105.17
2022-09-09T03:13:20.572Z,104.07
2022-09-09T03:15:51.255Z,106.30
2022-09-09T03:18:21.198Z,104.57
2022-09-09T03:20:50.662Z,104.10
2022-09-09T03:23:19.546Z,106.27
2022-09-09T03:25:58.221Z,108.27
2022-09-09T03:28:32.151Z,104.80
2022-09-09T03:31:02.277Z,108.60
2022-09-09T03:33:32.621Z,108.40
2022-09-09T03:36:01.156Z,109.90
2022-09-09T03:38:29.779Z,108.27
2022-09-09T03:40:59.994Z,106.80
2022-09-09T03:43:29.421Z,107.20
2022-09-09T03:45:58.283Z,106.40
2022-09-09T03:48:29.162Z,109.30
2022-09-09T03:51:01.903Z,106.57
2022-09-09T03:53:44.397Z,105.40
2022-09-09T03:56:13.199Z,107.70
2022-09-09T03:58:47.547Z,107.73
2022-09-09T04:01:22.019Z,105.77
2022-09-09T04:03:59.213Z,106.53
2022-09-09T04:06:31.612Z,107.97
2022-09-09T04:09:07.025Z,106.97
2022-09-09T04:11:40.426Z,105.00
2022-09-09T04:14:18.837Z,106.57
2022-09-09T04:17:07.387Z,104.40
2022-09-09T04:19:41.906Z,102.10
2022-09-09T04:22:14.107Z,105.07
2022-09-09T04:24:45.581Z,104.10
2022-09-09T04:27:27.448Z,103.37
2022-09-09T04:30:05.438Z,106.47
2022-09-09T04:32:41.103Z,101.20
2022-09-09T04:35:22.151Z,99.13
2022-09-09T04:38:03.845Z,99.50
2022-09-09T04:40:41.773Z,103.40
2022-09-09T04:43:18.046Z,99.17
2022-09-09T04:45:54.743Z,101.13
2022-09-09T04:48:23.682Z,98.93
2022-09-09T04:50:59.572Z,98.07
2022-09-09T04:53:30.607Z,108.33
2022-09-09T04:56:05.613Z,111.63
2022-09-09T04:58:34.386Z,108.50
2022-09-09T05:01:10.889Z,107.83
2022-09-09T05:03:39.890Z,106.27
2022-09-09T05:06:10.814Z,105.93
2022-09-09T05:08:41.768Z,108.30
2022-09-09T05:11:17.545Z,102.97
2022-09-09T05:13:51.206Z,105.47
2022-09-09T05:16:21.469Z,101.30
2022-09-09T05:18:57.828Z,101.10
2022-09-09T05:21:27.512Z,99.17
2022-09-09T05:24:02.643Z,93.97
2022-09-09T05:26:32.670Z,93.53
2022-09-09T05:29:01.606Z,97.90
2022-09-09T05:31:38.609Z,95.60
2022-09-09T05:34:09.048Z,101.33
2022-09-09T05:36:41.699Z,103.37
2022-09-09T05:39:13.106Z,105.00
2022-09-09T05:41:41.225Z,103.03
2022-09-09T05:44:16.329Z,110.60
2022-09-09T05:47:01.714Z,116.20
2022-09-09T05:49:30.036Z,117.33
2022-09-09T05:52:33.528Z,117.87
2022-09-09T05:55:06.735Z,116.97
2022-09-09T05:57:40.471Z,122.47
2022-09-09T06:00:10.586Z,123.50
2022-09-09T06:02:55.986Z,114.53
2022-09-09T06:05:28.516Z,119.20
2022-09-09T06:08:09.058Z,107.97
2022-09-09T06:10:40.048Z,118.97
2022-09-09T06:13:11.303Z,119.70
2022-09-09T06:15:41.521Z,115.30
2022-09-09T06:18:09.725Z,119.97
2022-09-09T06:20:37.955Z,119.07
2022-09-09T06:23:08.762Z,126.87
2022-09-09T06:25:36.839Z,125.10
2022-09-09T06:28:06.172Z,114.87
2022-09-09T06:30:36.095Z,124.43
2022-09-09T06:33:04.748Z,122.87
2022-09-09T06:35:32.819Z,122.70
2022-09-09T06:38:00.791Z,111.90
2022-09-09T06:40:28.770Z,109.50
2022-09-09T06:42:56.829Z,118.57
2022-09-09T06:45:26.329Z,112.47
2022-09-09T06:47:57.171Z,109.03
2022-09-09T06:50:25.213Z,93.83
2022-09-09T06:52:53.647Z,88.10
2022-09-09T06:55:21.695Z,88.23
2022-09-09T06:57:50.116Z,95.03
2022-09-09T07:00:19.339Z,101.87
2022-09-09T07:02:49.118Z,91.60
2022-09-09T07:05:17.614Z,93.23
2022-09-09T07:07:53.252Z,91.33
2022-09-09T07:10:21.758Z,91.70
2022-09-09T07:12:54.342Z,85.13
2022-09-09T07:15:24.802Z,74.97
2022-09-09T07:18:02.828Z,72.87
2022-09-09T07:20:31.332Z,70.83
2022-09-09T07:23:05.579Z,63.57
2022-09-09T07:25:35.894Z,63.20
2022-09-09T07:28:11.404Z,68.30
2022-09-09T07:30:56.702Z,65.77
2022-09-09T07:33:31.812Z,55.53
2022-09-09T07:36:07.031Z,54.57
2022-09-09T07:38:39.699Z,49.17
2022-09-09T07:41:13.091Z,44.97
2022-09-09T07:43:47.640Z,37.30
2022-09-09T07:46:35.128Z,33.97
2022-09-09T07:49:12.670Z,33.20
2022-09-09T07:51:51.174Z,32.80
2022-09-09T07:54:24.827Z,31.10
2022-09-09T07:57:05.747Z,29.80
2022-09-09T08:00:03.531Z,29.90
2022-09-09T08:02:51.353Z,28.80
2022-09-09T08:05:44.457Z,25.87
2022-09-09T08:08:16.304Z,27.50
2022-09-09T08:10:45.941Z,27.40
2022-09-09T08:13:22.673Z,26.37
2022-09-09T08:15:57.486Z,25.40
2022-09-09T08:18:31.827Z,26.40
2022-09-09T08:21:21.067Z,26.43
2022-09-09T08:23:58.287Z,25.37
2022-09-09T08:26:31.046Z,25.20
2022-09-09T08:29:02.689Z,24.73
2022-09-09T08:31:37.763Z,23.80
2022-09-09T08:34:07.199Z,24.27
2022-09-09T08:36:48.927Z,24.10
2022-09-09T08:39:22.686Z,24.87
2022-09-09T08:42:22.852Z,24.80
2022-09-09T08:45:05.919Z,24.80
2022-09-09T08:47:42.175Z,22.93
2022-09-09T08:50:22.838Z,23.77
2022-09-09T08:53:15.176Z,23.40
2022-09-09T08:55:48.393Z,24.93
2022-09-09T08:58:21.356Z,26.43
2022-09-09T09:01:25.596Z,26.80
2022-09-09T09:04:05.259Z,24.27
2022-09-09T09:06:57.324Z,24.80
2022-09-09T09:09:54.172Z,23.50
2022-09-09T09:12:24.848Z,22.20
2022-09-09T09:14:54.920Z,24.70
2022-09-09T09:17:29.149Z,23.97
2022-09-09T09:20:23.322Z,25.20
2022-09-09T09:23:04.817Z,23.57
2022-09-09T09:25:40.615Z,22.40
2022-09-09T09:28:20.624Z,22.33
2022-09-09T09:31:35.688Z,22.60
2022-09-09T09:34:18.822Z,22.57
2022-09-09T09:36:57.985Z,22.27
2022-09-09T09:40:10.769Z,22.77
2022-09-09T09:42:39.765Z,21.53
2022-09-09T09:45:30.789Z,22.37
2022-09-09T09:48:07.811Z,21.80
2022-09-09T09:50:37.877Z,21.57
2022-09-09T09:53:09.424Z,21.43
2022-09-09T09:55:39.176Z,21.37
2022-09-09T09:58:35.800Z,21.60
2022-09-09T10:01:25.541Z,20.87
2022-09-09T10:03:56.922Z,21.67
2022-09-09T10:06:41.060Z,21.20
2022-09-09T10:09:24.738Z,21.70
2022-09-09T10:12:05.064Z,20.83
2022-09-09T10:14:42.441Z,21.40
2022-09-09T10:17:21.194Z,22.37
2022-09-09T10:20:07.497Z,22.30
2022-09-09T10:22:38.419Z,23.00
2022-09-09T10:25:22.938Z,24.90
2022-09-09T10:28:09.414Z,26.10
2022-09-09T10:30:56.012Z,28.47
2022-09-09T10:33:35.296Z,28.93
2022-09-09T10:36:14.872Z,28.93
2022-09-09T10:38:47.338Z,31.47
2022-09-09T10:41:22.363Z,32.37
2022-09-09T10:44:16.070Z,37.23
2022-09-09T10:47:08.250Z,39.33
2022-09-09T10:50:02.775Z,35.83
2022-09-09T10:52:40.002Z,31.60
2022-09-09T10:55:16.200Z,28.50
2022-09-09T10:57:48.772Z,24.93
2022-09-09T11:00:21.736Z,25.43
2022-09-09T11:02:57.844Z,24.87
2022-09-09T11:05:33.209Z,21.67
2022-09-09T11:08:07.240Z,21.17
2022-09-09T11:10:43.272Z,21.53
2022-09-09T11:13:17.363Z,21.93
2022-09-09T11:15:49.196Z,20.30
2022-09-09T11:18:25.891Z,20.20
2022-09-09T11:21:01.167Z,20.33
2022-09-09T11:23:41.806Z,19.70
2022-09-09T11:26:18.796Z,20.40
2022-09-09T11:29:05.038Z,20.03
2022-09-09T11:31:47.459Z,19.50
2022-09-09T11:34:28.055Z,20.27
2022-09-09T11:37:16.061Z,20.10
2022-09-09T11:40:04.169Z,20.40
2022-09-09T11:42:32.622Z,21.50
2022-09-09T11:45:12.313Z,22.20
2022-09-09T11:47:41.513Z,21.47
2022-09-09T11:50:28.402Z,21.97
2022-09-09T11:53:23.658Z,22.20
2022-09-09T11:56:12.048Z,24.87
2022-09-09T11:58:46.672Z,26.87
2022-09-09T12:01:32.997Z,26.20
2022-09-09T12:04:23.669Z,27.10
2022-09-09T12:06:58.268Z,27.53
2022-09-09T12:09:44.895Z,28.23
2022-09-09T12:12:34.094Z,29.23
2022-09-09T12:15:21.688Z,32.87
2022-09-09T12:17:52.852Z,35.27
2022-09-09T12:20:25.122Z,34.13
2022-09-09T12:23:17.291Z,32.10
2022-09-09T12:26:05.826Z,29.07
2022-09-09T12:28:45.970Z,25.57
2022-09-09T12:31:20.242Z,24.70
2022-09-09T12:33:53.202Z,25.03
2022-09-09T12:36:28.032Z,23.83
2022-09-09T12:39:00.899Z,24.77
2022-09-09T12:41:30.660Z,23.73
2022-09-09T12:44:07.936Z,23.90
2022-09-09T12:46:38.639Z,23.57
2022-09-09T12:49:07.511Z,23.80
2022-09-09T12:51:38.738Z,23.67
2022-09-09T12:54:08.067Z,25.03
2022-09-09T12:56:36.381Z,24.30
2022-09-09T12:59:05.506Z,24.43
2022-09-09T13:01:35.196Z,25.20
2022-09-09T13:04:04.146Z,26.20
2022-09-09T13:06:34.175Z,26.07
2022-09-09T13:09:03.482Z,27.23
2022-09-09T13:11:39.675Z,26.43
2022-09-09T13:14:08.045Z,28.27
2022-09-09T13:16:42.575Z,26.03
2022-09-09T13:19:16.550Z,25.27
2022-09-09T13:21:44.686Z,26.03
2022-09-09T13:24:29.458Z,25.57
2022-09-09T13:27:02.757Z,24.17
2022-09-09T13:29:31.828Z,24.33
2022-09-09T13:32:07.300Z,25.20
2022-09-09T13:34:37.305Z,25.40
2022-09-09T13:37:07.848Z,25.77
2022-09-09T13:39:37.808Z,26.50
2022-09-09T13:42:08.084Z,24.80
2022-09-09T13:44:39.745Z,23.90
2022-09-09T13:47:20.081Z,22.83
2022-09-09T13:49:48.907Z,23.87
2022-09-09T13:52:19.870Z,22.73
2022-09-09T13:54:52.133Z,22.50
2022-09-09T13:57:23.103Z,23.10
2022-09-09T14:00:04.543Z,22.67
2022-09-09T14:02:34.841Z,21.40
2022-09-09T14:05:03.093Z,22.60
2022-09-09T14:07:31.353Z,22.13
2022-09-09T14:10:00.312Z,22.10
2022-09-09T14:12:29.915Z,21.73
2022-09-09T14:14:57.878Z,20.70
2022-09-09T14:17:26.086Z,21.10
2022-09-09T14:19:54.169Z,21.47
2022-09-09T14:22:23.239Z,22.03
2022-09-09T14:24:51.450Z,20.33
2022-09-09T14:27:19.951Z,20.00
2022-09-09T14:29:49.197Z,19.47
2022-09-09T14:32:17.113Z,19.20
2022-09-09T14:34:45.098Z,18.63
2022-09-09T14:37:16.248Z,19.10
2022-09-09T14:39:45.050Z,19.50
2022-09-09T14:42:14.024Z,18.80
2022-09-09T14:44:42.616Z,19.27
2022-09-09T14:47:12.082Z,19.03
2022-09-09T14:49:42.568Z,18.93
2022-09-09T14:52:14.214Z,18.80
2022-09-09T14:54:50.755Z,19.17
2022-09-09T14:57:25.289Z,19.43
2022-09-09T14:59:54.581Z,19.10
2022-09-09T15:02:33.467Z,18.37
2022-09-09T15:05:02.477Z,18.73
2022-09-09T15:07:30.552Z,18.60
2022-09-09T15:09:58.555Z,18.60
2022-09-09T15:12:26.605Z,18.17
2022-09-09T15:14:55.681Z,18.33
2022-09-09T15:17:28.411Z,18.50
2022-09-09T15:19:59.245Z,18.23
2022-09-09T15:22:37.755Z,18.20
2022-09-09T15:25:09.361Z,18.30
2022-09-09T15:27:40.208Z,18.30
2022-09-09T15:30:11.157Z,18.73
2022-09-09T15:32:40.981Z,18.77
2022-09-09T15:35:18.880Z,19.30
2022-09-09T15:37:49.136Z,19.43
2022-09-09T15:40:42.072Z,19.10
2022-09-09T15:43:15.532Z,19.43
2022-09-09T15:46:25.598Z,19.60
2022-09-09T15:49:07.062Z,19.03
2022-09-09T15:51:44.737Z,19.10
2022-09-09T15:54:23.760Z,18.87
2022-09-09T15:57:19.746Z,19.33
2022-09-09T15:59:54.440Z,19.23
2022-09-09T16:02:40.050Z,18.87
2022-09-09T16:05:09.813Z,19.07
2022-09-09T16:07:46.297Z,19.00
2022-09-09T16:10:15.981Z,19.20
2022-09-09T16:13:03.272Z,19.17
2022-09-09T16:15:35.803Z,19.33
2022-09-09T16:18:05.709Z,19.90
2022-09-09T16:20:55.720Z,20.27
2022-09-09T16:23:27.317Z,19.97
2022-09-09T16:26:18.622Z,20.20
2022-09-09T16:28:51.457Z,19.93
2022-09-09T16:31:27.198Z,20.03
2022-09-09T16:34:06.895Z,20.40
2022-09-09T16:36:41.665Z,20.57
2022-09-09T16:39:14.935Z,20.40
2022-09-09T16:41:50.666Z,21.03
2022-09-09T16:44:20.467Z,20.40
2022-09-09T16:46:56.659Z,21.03
2022-09-09T16:49:29.399Z,21.00
2022-09-09T16:52:01.095Z,21.07
2022-09-09T16:54:31.743Z,20.73
2022-09-09T16:57:01.293Z,20.77
2022-09-09T16:59:34.448Z,20.80
2022-09-09T17:02:06.112Z,21.33
2022-09-09T17:04:36.365Z,20.17
2022-09-09T17:07:04.555Z,20.77
2022-09-09T17:09:34.012Z,21.17
2022-09-09T17:12:03.517Z,21.03
2022-09-09T17:14:33.267Z,21.67
2022-09-09T17:17:24.716Z,21.63
2022-09-09T17:19:51.462Z,21.30
2022-09-09T17:22:19.540Z,20.97
2022-09-09T17:24:52.323Z,21.20
2022-09-09T17:27:20.908Z,20.73
2022-09-09T17:29:58.663Z,20.73
2022-09-09T17:32:27.920Z,21.00
2022-09-09T17:35:17.568Z,22.03
2022-09-09T17:37:50.722Z,21.87
2022-09-09T17:40:21.441Z,21.80
2022-09-09T17:42:52.155Z,21.63
2022-09-09T17:45:20.473Z,21.37
2022-09-09T17:47:50.680Z,21.70
2022-09-09T17:50:19.424Z,22.90
2022-09-09T17:52:48.457Z,21.23
2022-09-09T17:55:19.074Z,20.90
2022-09-09T17:57:47.104Z,22.50
2022-09-09T18:00:15.868Z,22.77
2022-09-09T18:02:50.246Z,23.57
2022-09-09T18:05:28.633Z,24.10
2022-09-09T18:08:00.799Z,23.07
2022-09-09T18:10:54.063Z,23.20
2022-09-09T18:13:25.107Z,24.80
2022-09-09T18:15:58.166Z,25.20
2022-09-09T18:18:28.364Z,25.23
2022-09-09T18:21:01.849Z,27.20
2022-09-09T18:23:30.235Z,26.97
2022-09-09T18:26:00.342Z,28.30
2022-09-09T18:28:29.646Z,27.43
2022-09-09T18:30:58.983Z,27.97
2022-09-09T18:33:27.466Z,27.20
2022-09-09T18:35:56.951Z,26.90
2022-09-09T18:38:27.014Z,27.40
2022-09-09T18:40:55.427Z,28.13
2022-09-09T18:43:24.966Z,28.90
2022-09-09T18:45:53.085Z,28.77
2022-09-09T18:48:21.387Z,29.53
2022-09-09T18:50:50.668Z,29.70
2022-09-09T18:53:24.656Z,29.77
2022-09-09T18:56:00.386Z,28.60
2022-09-09T18:58:33.206Z,30.70
2022-09-09T19:01:06.256Z,30.90
2022-09-09T19:03:37.026Z,32.77
2022-09-09T19:06:08.948Z,33.47
2022-09-09T19:08:38.312Z,35.17
2022-09-09T19:11:09.055Z,37.83
2022-09-09T19:13:40.026Z,39.53
2022-09-09T19:16:12.271Z,40.90
2022-09-09T19:18:41.115Z,45.00
2022-09-09T19:21:18.227Z,50.27
2022-09-09T19:23:47.154Z,54.90
2022-09-09T19:26:17.364Z,54.27
2022-09-09T19:28:49.930Z,57.13
2022-09-09T19:31:23.068Z,55.23
2022-09-09T19:33:54.255Z,56.90
2022-09-09T19:36:25.093Z,57.83
2022-09-09T19:38:55.008Z,61.93
2022-09-09T19:41:26.349Z,64.77
2022-09-09T19:44:01.172Z,65.63
2022-09-09T19:46:31.332Z,66.87
2022-09-09T19:49:01.082Z,66.67
2022-09-09T19:51:30.411Z,65.63
2022-09-09T19:54:00.605Z,68.37
2022-09-09T19:56:29.833Z,72.17
2022-09-09T19:58:59.343Z,71.83
2022-09-09T20:01:29.230Z,71.03
2022-09-09T20:04:01.179Z,70.03
2022-09-09T20:06:32.503Z,66.80
2022-09-09T20:09:01.420Z,67.77
2022-09-09T20:11:29.766Z,66.30
2022-09-09T20:13:59.447Z,67.03
2022-09-09T20:16:29.031Z,67.83
2022-09-09T20:19:04.809Z,71.00
2022-09-09T20:21:35.387Z,70.67
2022-09-09T20:24:05.941Z,68.10
2022-09-09T20:26:35.331Z,70.93
2022-09-09T20:29:06.428Z,73.50
2022-09-09T20:31:36.457Z,69.50
2022-09-09T20:34:06.179Z,71.53
2022-09-09T20:36:36.666Z,73.97
2022-09-09T20:39:07.444Z,76.23
2022-09-09T20:41:38.859Z,79.80
2022-09-09T20:44:13.551Z,78.43
2022-09-09T20:46:43.511Z,74.70
2022-09-09T20:49:13.800Z,78.77
2022-09-09T20:51:42.124Z,81.87
2022-09-09T20:54:14.077Z,77.80
2022-09-09T20:56:45.912Z,79.57
2022-09-09T20:59:19.057Z,80.53
2022-09-09T21:01:47.993Z,79.50
2022-09-09T21:04:17.646Z,81.20
2022-09-09T21:06:50.453Z,80.77
2022-09-09T21:09:19.700Z,80.43
2022-09-09T21:12:03.734Z,81.40
2022-09-09T21:14:34.138Z,83.97
2022-09-09T21:17:04.716Z,84.87
2022-09-09T21:19:34.330Z,89.17
2022-09-09T21:22:02.406Z,92.17
2022-09-09T21:24:30.452Z,96.70
2022-09-09T21:27:00.762Z,92.60
2022-09-09T21:29:30.292Z,93.20
2022-09-09T21:32:03.440Z,89.93
2022-09-09T21:34:32.011Z,88.47
2022-09-09T21:37:00.389Z,88.50
2022-09-09T21:39:28.695Z,89.60
2022-09-09T21:41:59.159Z,89.67
2022-09-09T21:44:27.852Z,92.03
2022-09-09T21:46:56.545Z,94.40
2022-09-09T21:49:41.075Z,90.13
2022-09-09T21:52:13.426Z,91.33
2022-09-09T21:54:44.928Z,90.87
2022-09-09T21:57:25.062Z,90.30
2022-09-09T21:59:54.537Z,87.30
2022-09-09T22:02:23.223Z,92.37
2022-09-09T22:05:03.509Z,86.27
2022-09-09T22:07:32.575Z,89.40
2022-09-09T22:10:01.227Z,89.00
2022-09-09T22:12:29.686Z,86.27
2022-09-09T22:14:58.741Z,86.23
2022-09-09T22:17:30.311Z,87.23
2022-09-09T22:20:00.552Z,84.30
2022-09-09T22:22:31.355Z,84.00
2022-09-09T22:25:03.232Z,86.20
2022-09-09T22:27:32.565Z,85.93
2022-09-09T22:30:08.935Z,90.10
2022-09-09T22:32:37.076Z,89.83
2022-09-09T22:35:06.345Z,87.17
2022-09-09T22:37:36.410Z,87.50
2022-09-09T22:40:06.545Z,87.87
2022-09-09T22:42:36.122Z,91.00
2022-09-09T22:45:12.518Z,92.80
2022-09-09T22:47:43.127Z,92.43
2022-09-09T22:50:12.357Z,90.67
2022-09-09T22:52:53.789Z,93.60
2022-09-09T22:55:24.280Z,94.97
2022-09-09T22:57:54.763Z,94.27
2022-09-09T23:00:29.568Z,93.23
2022-09-09T23:03:04.503Z,93.47
2022-09-09T23:05:33.637Z,92.20
2022-09-09T23:08:05.996Z,90.43
2022-09-09T23:10:43.540Z,96.93
2022-09-09T23:13:11.873Z,97.17
2022-09-09T23:15:40.800Z,95.37
2022-09-09T23:18:16.365Z,95.97
2022-09-09T23:20:47.451Z,93.97
2022-09-09T23:23:17.906Z,91.33
2022-09-09T23:25:46.295Z,93.00
2022-09-09T23:28:15.301Z,95.87
2022-09-09T23:30:48.969Z,95.30
2022-09-09T23:33:18.431Z,94.33
2022-09-09T23:35:48.286Z,97.17
2022-09-09T23:38:28.985Z,95.53
2022-09-09T23:41:02.648Z,96.07
2022-09-09T23:43:39.457Z,94.37
2022-09-09T23:46:23.436Z,92.83
2022-09-09T23:48:59.787Z,94.70
2022-09-09T23:51:30.802Z,90.07
2022-09-09T23:54:05.057Z,89.10
2022-09-09T23:56:35.078Z,89.60
2022-09-09T23:59:08.587Z,91.50
